This is the latest recevied weather packets stored in our database for station/object WX5RP. If no packets are shown the sender has not sent any weather packets the latest 10 day(s).
| Time | Temp. | Humidity | Pressure | Rain* | Wind** | Luminosity | Snow |
|---|---|---|---|---|---|---|---|
| 1787766016 | 24.44° C | 35% | 1022.6 hPa | 0 mm | - | 754 W/m² | - |
| 1787765419 | 23.89° C | 37% | 1022.6 hPa | 0 mm | - | 703 W/m² | - |
| 1787764816 | 23.89° C | 36% | 1022.4 hPa | 0 mm | - | 765 W/m² | - |
| 1787764216 | 23.33° C | 36% | 1021.7 hPa | 0 mm | - | 715 W/m² | - |
| 1787763616 | 23.33° C | 36% | 1021.7 hPa | 0 mm | - | 634 W/m² | - |
| 1787763017 | 22.22° C | 37% | 1021.8 hPa | 0 mm | - | 633 W/m² | - |
| 1787762416 | 22.22° C | 37% | 1021.5 hPa | 0 mm | - | 613 W/m² | - |
| 1787761815 | 21.67° C | 37% | 1021.8 hPa | 0 mm | - | 584 W/m² | - |
| 1787761216 | 21.11° C | 40% | 1021.7 hPa | 0 mm | - | 561 W/m² | - |
| 1787760616 | 20.56° C | 45% | 1022 hPa | 0 mm | - | 524 W/m² | - |
| 1787760016 | 19.44° C | 49% | 1021.8 hPa | 0 mm | - | 490 W/m² | - |
| 1787759415 | 19.44° C | 47% | 1022.1 hPa | 0 mm | - | 457 W/m² | - |
| 1787758815 | 18.33° C | 47% | 1022.5 hPa | 0 mm | - | 427 W/m² | - |
| 1787758216 | 17.78° C | 47% | 1022.7 hPa | 0 mm | - | 398 W/m² | - |
| 1787757616 | 17.22° C | 49% | 1023 hPa | 0 mm | - | 371 W/m² | - |
| 1787757017 | 16.67° C | 50% | 1022 hPa | 0 mm | - | 373 W/m² | - |
| 1787756415 | 15.56° C | 54% | 1022 hPa | 0 mm | - | 358 W/m² | - |
| 1787755815 | 14.44° C | 57% | 1022.3 hPa | 0 mm | - | 307 W/m² | - |
| 1787755215 | 12.78° C | 63% | 1022.7 hPa | 0 mm | - | 252 W/m² | - |
| 1787754615 | 11.67° C | 68% | 1022.4 hPa | 0 mm | - | 206 W/m² | - |
| 1787754016 | 10° C | 69% | 1022.9 hPa | 0 mm | - | 157 W/m² | - |
| 1787753415 | 9.44° C | 70% | 1021.7 hPa | 0 mm | - | 72 W/m² | - |
| 1787752818 | 8.89° C | 70% | 1021.9 hPa | 0 mm | - | 40 W/m² | - |
| 1787752220 | 8.89° C | 70% | 1021.7 hPa | 0 mm | - | 32 W/m² | - |
| 1787751617 | 8.33° C | 71% | 1022 hPa | 0 mm | - | 18 W/m² | - |
* Rain latest hour (hover to see other rain measurements)
** Current wind speed in m/s (hover to see current wind gust speed)